Itabuna, Brazil
Current Conditions -  °F | °C
As of 8:00 AM on Friday 24 Oct 2014 (Local Time) from SBIL Reporting Station
Light Rain Light Rain  
Wind Chill: 72°   Ceiling: 500
Heat Index: 72°   Visibility: 1.2mi
Dew Point: 70°   Wind: 7mph
Humidity: 94%   Direction: 200°SSW
Pressure: NA   Gusts: NA
Location:  14.79°S, 39.28°W
Report Text: SBIL 241100Z 20006KT 2000 -RA BR BKN005 BKN020 OVC070 22/21 Q1017
Loading
Personal Weather Stations






























Interactive Weather Map
Tropical Storm Tracking
New forecast layout! Learn more

10-Day Weather Forecast

Advertisements
Track Severe Weather on mobile